Hidden Valley, Nevada
Current Conditions -  °F | °C
As of 3:55 PM on Wednesday 28 Jan 2015 (Local Time) from KRNO Reporting Station
Scattered Clouds Scattered Clouds  
Wind Chill: 56°   Ceiling: Unl
Heat Index: 56°   Visibility: 10mi
Dew Point: 29°   Wind: 10mph
Humidity: 36%   Direction: 90°E
Pressure: 30.26"   Gusts: NA
Location:  39.4944°N, 119.746°W
Report Text: KRNO 282355Z 09009KT 10SM FEW080 SCT250 13/M02 A3026 RMK AO2 SLP238 T01331017 10144 20039 56011
Loading
Personal Weather Stations






























Interactive Weather Map New forecast layout! Learn more

10-Day Weather Forecast

Advertisements
Track Severe Weather on mobile